首页
METAR-TAF:

METAR-TAF

机场 :

Vidalia Regional Airport

Vidalia, 喬治亞, 美国

纬度: 32-11-33N, 经度: 082-22-19W, 海拔: 84米

当前天气观测

该预报发布于23分钟前的09:35 UTC
静风
温度 25°C
湿度 65%
气压 1020 hPa
能見度: 16.1公里
天空无云

METAR: KVDI 260935Z AUTO 00000KT 10SM CLR 25/18 A3013 RMK AO2

时间: 05:58 (09:58 UTC)


TAF: 丢失

超过4000个机场的气象观测和天气预报(METAR&TAF报告)。

可查询的气象台以黄色和红色小点在地图上表示。

将鼠标移到小点上方,可查看气象台名称。

然后点击查看天气观测和预报。

如需切换地图:点击带黑十字的绿色按钮放大地图;点击带横线的绿色按钮缩小地图;或者点击绿色箭头查看邻近地区的地图。


METAR-TAF: